createdAt,value
2023-02-02T00:00:20.624Z,4
2023-02-02T00:01:21.219Z,4
2023-02-02T00:02:21.897Z,4
2023-02-02T00:03:22.497Z,4
2023-02-02T00:04:23.098Z,4
2023-02-02T00:05:24.829Z,4
2023-02-02T00:06:25.632Z,4
2023-02-02T00:07:26.207Z,4
2023-02-02T00:08:26.798Z,4
2023-02-02T00:09:27.392Z,4
2023-02-02T00:10:28.143Z,4
2023-02-02T00:11:28.740Z,0
2023-02-02T00:12:29.338Z,0
2023-02-02T00:13:30.741Z,0
2023-02-02T00:14:31.333Z,0
2023-02-02T00:15:32.787Z,0
2023-02-02T00:16:33.420Z,0
2023-02-02T00:17:34.089Z,0
2023-02-02T00:18:34.689Z,0
2023-02-02T00:19:35.273Z,0
2023-02-02T00:20:35.865Z,0
2023-02-02T00:21:57.042Z,0
2023-02-02T00:23:14.212Z,0
2023-02-02T00:24:14.807Z,0
2023-02-02T00:25:15.474Z,0
2023-02-02T00:26:16.235Z,0
2023-02-02T00:27:16.869Z,0
2023-02-02T00:28:17.462Z,0
2023-02-02T00:29:18.066Z,0
2023-02-02T00:31:20.269Z,0
2023-02-02T00:32:21.043Z,0
2023-02-02T00:33:38.198Z,0
2023-02-02T00:34:38.953Z,0
2023-02-02T00:35:39.558Z,0
2023-02-02T00:36:40.142Z,0
2023-02-02T00:37:40.847Z,0
2023-02-02T00:38:41.448Z,0
2023-02-02T00:39:42.044Z,0
2023-02-02T00:40:43.496Z,0
2023-02-02T00:41:44.102Z,0
2023-02-02T00:42:44.776Z,0
2023-02-02T00:43:45.381Z,0
2023-02-02T00:44:46.110Z,0
2023-02-02T00:45:46.809Z,0
2023-02-02T00:46:47.407Z,0
2023-02-02T00:47:48.017Z,0
2023-02-02T00:48:48.593Z,0
2023-02-02T00:49:49.187Z,0
2023-02-02T00:50:49.788Z,0
2023-02-02T00:51:50.448Z,0
2023-02-02T00:52:51.051Z,0
2023-02-02T00:53:51.634Z,0
2023-02-02T00:54:52.244Z,0
2023-02-02T00:55:52.881Z,0
2023-02-02T00:56:53.478Z,0
2023-02-02T00:57:54.080Z,0
2023-02-02T00:58:55.087Z,0
2023-02-02T00:59:55.676Z,0
2023-02-02T01:00:56.288Z,0
2023-02-02T01:01:56.930Z,0
2023-02-02T01:02:57.523Z,0
2023-02-02T01:03:58.114Z,0
2023-02-02T01:04:58.707Z,0
2023-02-02T01:06:15.875Z,0
2023-02-02T01:07:16.472Z,0
2023-02-02T01:08:17.074Z,0
2023-02-02T01:09:17.671Z,0
2023-02-02T01:10:18.332Z,0
2023-02-02T01:11:18.927Z,0
2023-02-02T01:12:19.527Z,0
2023-02-02T01:13:20.128Z,0
2023-02-02T01:14:20.720Z,0
2023-02-02T01:15:21.493Z,0
2023-02-02T01:16:21.992Z,0
2023-02-02T01:17:22.570Z,0
2023-02-02T01:18:23.164Z,0
2023-02-02T01:19:23.756Z,0
2023-02-02T01:20:24.350Z,0
2023-02-02T01:21:24.985Z,0
2023-02-02T01:22:25.623Z,0
2023-02-02T01:23:26.217Z,0
2023-02-02T01:24:26.824Z,0
2023-02-02T01:25:27.416Z,0
2023-02-02T01:26:28.056Z,0
2023-02-02T01:27:28.654Z,0
2023-02-02T01:28:29.322Z,0
2023-02-02T01:29:29.913Z,0
2023-02-02T01:30:30.508Z,0
2023-02-02T01:31:31.144Z,0
2023-02-02T01:32:31.873Z,0
2023-02-02T01:33:32.475Z,0
2023-02-02T01:34:33.069Z,0
2023-02-02T01:35:33.668Z,0
2023-02-02T01:36:34.261Z,0
2023-02-02T01:37:34.878Z,0
2023-02-02T01:38:35.565Z,0
2023-02-02T01:39:36.167Z,0
2023-02-02T01:40:36.757Z,0
2023-02-02T01:41:38.203Z,0
2023-02-02T01:42:38.848Z,0
2023-02-02T01:43:39.511Z,0
2023-02-02T01:44:40.106Z,0
2023-02-02T01:45:41.574Z,0
2023-02-02T01:46:42.231Z,0
2023-02-02T01:47:42.829Z,0
2023-02-02T01:48:43.423Z,0
2023-02-02T01:49:44.017Z,0
2023-02-02T01:50:44.621Z,0
2023-02-02T01:51:45.285Z,0
2023-02-02T01:52:45.895Z,0
2023-02-02T01:53:46.495Z,0
2023-02-02T01:54:47.092Z,0
2023-02-02T01:55:47.694Z,0
2023-02-02T01:56:48.293Z,0
2023-02-02T01:57:48.969Z,0
2023-02-02T01:58:49.622Z,0
2023-02-02T01:59:50.210Z,0
2023-02-02T02:00:50.818Z,0
2023-02-02T02:01:51.400Z,0
2023-02-02T02:02:52.003Z,0
2023-02-02T02:03:52.675Z,0
2023-02-02T02:04:53.279Z,0
2023-02-02T02:05:53.908Z,0
2023-02-02T02:06:54.498Z,0
2023-02-02T02:07:55.076Z,0
2023-02-02T02:08:55.675Z,0
2023-02-02T02:09:56.263Z,0
2023-02-02T02:10:56.863Z,0
2023-02-02T02:11:57.456Z,0
2023-02-02T02:12:58.049Z,0
2023-02-02T02:13:58.753Z,0
2023-02-02T02:14:59.346Z,0
2023-02-02T02:16:25.502Z,0
2023-02-02T02:17:26.146Z,0
2023-02-02T02:18:26.812Z,0
2023-02-02T02:19:27.397Z,0
2023-02-02T02:20:27.997Z,0
2023-02-02T02:21:28.592Z,0
2023-02-02T02:22:45.823Z,0
2023-02-02T02:23:46.498Z,0
2023-02-02T02:24:47.098Z,0
2023-02-02T02:25:47.702Z,0
2023-02-02T02:26:48.401Z,0
2023-02-02T02:27:49.039Z,0
2023-02-02T02:28:49.632Z,0
2023-02-02T02:29:50.230Z,0
2023-02-02T02:30:50.971Z,0
2023-02-02T02:31:51.622Z,0
2023-02-02T02:32:52.249Z,0
2023-02-02T02:33:52.848Z,0
2023-02-02T02:34:54.294Z,0
2023-02-02T02:35:54.888Z,0
2023-02-02T02:36:55.490Z,0
2023-02-02T02:37:56.081Z,0
2023-02-02T02:38:56.672Z,0
2023-02-02T02:39:57.274Z,0
2023-02-02T02:40:57.865Z,0
2023-02-02T02:41:58.460Z,0
2023-02-02T02:42:59.864Z,0
2023-02-02T02:44:00.460Z,0
2023-02-02T02:45:01.076Z,0
2023-02-02T02:46:01.703Z,0
2023-02-02T02:47:02.294Z,0
2023-02-02T02:48:02.949Z,0
2023-02-02T02:49:03.541Z,0
2023-02-02T02:50:04.126Z,0
2023-02-02T02:51:04.716Z,0
2023-02-02T02:52:05.460Z,0
2023-02-02T02:53:06.071Z,0
2023-02-02T02:54:06.669Z,0
2023-02-02T02:55:07.302Z,0
2023-02-02T02:56:07.903Z,0
2023-02-02T02:57:08.505Z,0
2023-02-02T02:58:09.095Z,0
2023-02-02T02:59:09.695Z,0
2023-02-02T03:00:10.284Z,0
2023-02-02T03:01:10.902Z,0
2023-02-02T03:02:11.501Z,0
2023-02-02T03:03:12.167Z,0
2023-02-02T03:04:12.759Z,0
2023-02-02T03:05:13.398Z,0
2023-02-02T03:06:13.996Z,0
2023-02-02T03:07:14.685Z,0
2023-02-02T03:08:15.279Z,0
2023-02-02T03:09:15.870Z,0
2023-02-02T03:10:16.466Z,0
2023-02-02T03:11:17.061Z,0
2023-02-02T03:12:17.724Z,0
2023-02-02T03:13:18.324Z,0
2023-02-02T03:14:18.927Z,0
2023-02-02T03:15:19.529Z,0
2023-02-02T03:16:20.198Z,0
2023-02-02T03:17:20.796Z,0
2023-02-02T03:18:21.396Z,0
2023-02-02T03:19:21.989Z,0
2023-02-02T03:20:22.587Z,0
2023-02-02T03:21:23.248Z,0
2023-02-02T03:22:23.839Z,0
2023-02-02T03:23:24.434Z,0
2023-02-02T03:24:25.090Z,0
2023-02-02T03:25:25.964Z,0
2023-02-02T03:26:26.727Z,0
2023-02-02T03:27:27.388Z,0
2023-02-02T03:28:27.990Z,0
2023-02-02T03:29:28.590Z,0
2023-02-02T03:30:29.214Z,0
2023-02-02T03:31:29.890Z,0
2023-02-02T03:32:30.514Z,0
2023-02-02T03:33:31.112Z,0
2023-02-02T03:34:31.705Z,0
2023-02-02T03:35:32.310Z,0
2023-02-02T03:36:32.972Z,0
2023-02-02T03:37:33.612Z,0
2023-02-02T03:38:34.207Z,0
2023-02-02T03:39:34.861Z,0
2023-02-02T03:40:35.455Z,0
2023-02-02T03:41:36.055Z,0
2023-02-02T03:42:36.646Z,0
2023-02-02T03:43:37.240Z,0
2023-02-02T03:44:37.833Z,0
2023-02-02T03:45:38.498Z,0
2023-02-02T03:46:39.109Z,0
2023-02-02T03:47:39.690Z,0
2023-02-02T03:48:40.282Z,0
2023-02-02T03:49:40.871Z,0
2023-02-02T03:50:41.482Z,0
2023-02-02T03:51:42.138Z,0
2023-02-02T03:52:42.786Z,0
2023-02-02T03:53:43.431Z,0
2023-02-02T03:54:44.036Z,0
2023-02-02T03:55:44.625Z,0
2023-02-02T03:56:45.218Z,0
2023-02-02T03:57:45.870Z,0
2023-02-02T03:58:46.479Z,0
2023-02-02T03:59:47.068Z,0
2023-02-02T04:00:47.658Z,0
2023-02-02T04:01:48.438Z,0
2023-02-02T04:02:49.095Z,0
2023-02-02T04:03:49.683Z,0
2023-02-02T04:04:50.281Z,0
2023-02-02T04:05:50.872Z,0
2023-02-02T04:06:51.465Z,0
2023-02-02T04:07:52.067Z,0
2023-02-02T04:08:52.669Z,0
2023-02-02T04:09:53.282Z,0
2023-02-02T04:10:53.916Z,0
2023-02-02T04:11:54.523Z,0
2023-02-02T04:12:55.211Z,0
2023-02-02T04:13:55.815Z,0
2023-02-02T04:14:56.404Z,0
2023-02-02T04:15:57.024Z,0
2023-02-02T04:16:58.407Z,0
2023-02-02T04:17:59.872Z,0
2023-02-02T04:19:00.472Z,0
2023-02-02T04:20:01.063Z,0
2023-02-02T04:21:01.666Z,0
2023-02-02T04:22:02.245Z,0
2023-02-02T04:23:02.846Z,0
2023-02-02T04:24:03.446Z,0
2023-02-02T04:25:04.055Z,0
2023-02-02T04:26:04.668Z,0
2023-02-02T04:27:05.257Z,0
2023-02-02T04:28:05.858Z,0
2023-02-02T04:29:06.451Z,0
2023-02-02T04:30:07.052Z,0
2023-02-02T04:31:07.796Z,0
2023-02-02T04:32:08.460Z,0
2023-02-02T04:33:09.048Z,0
2023-02-02T04:34:09.636Z,0
2023-02-02T04:35:10.229Z,0
2023-02-02T04:36:10.837Z,0
2023-02-02T04:37:11.432Z,0
2023-02-02T04:38:12.105Z,0
2023-02-02T04:39:12.712Z,0
2023-02-02T04:40:13.301Z,0
2023-02-02T04:41:13.902Z,0
2023-02-02T04:42:14.508Z,0
2023-02-02T04:43:15.257Z,0
2023-02-02T04:44:15.846Z,0
2023-02-02T04:45:16.446Z,0
2023-02-02T04:46:17.046Z,0
2023-02-02T04:47:17.645Z,0
2023-02-02T04:48:18.237Z,0
2023-02-02T04:49:18.837Z,0
2023-02-02T04:50:19.423Z,0
2023-02-02T04:51:20.823Z,0
2023-02-02T04:52:21.455Z,0
2023-02-02T04:53:22.046Z,0
2023-02-02T04:54:22.644Z,0
2023-02-02T04:55:23.560Z,0
2023-02-02T04:56:24.419Z,0
2023-02-02T04:57:25.009Z,0
2023-02-02T04:58:25.612Z,0
2023-02-02T04:59:26.204Z,0
2023-02-02T05:00:26.797Z,0
2023-02-02T05:01:27.531Z,0
2023-02-02T05:02:28.139Z,0
2023-02-02T05:03:28.731Z,0
2023-02-02T05:04:29.379Z,0
2023-02-02T05:05:30.340Z,0
2023-02-02T05:06:30.986Z,0
2023-02-02T05:07:31.575Z,0
2023-02-02T05:08:32.172Z,0
2023-02-02T05:09:32.764Z,0
2023-02-02T05:10:33.360Z,0
2023-02-02T05:11:34.814Z,0
2023-02-02T05:12:35.405Z,0
2023-02-02T05:13:35.999Z,0
2023-02-02T05:14:37.453Z,0
2023-02-02T05:15:38.051Z,0
2023-02-02T05:16:38.688Z,0
2023-02-02T05:17:39.283Z,0
2023-02-02T05:18:39.945Z,0
2023-02-02T05:19:40.537Z,0
2023-02-02T05:20:41.129Z,0
2023-02-02T05:21:41.755Z,0
2023-02-02T05:22:42.348Z,0
2023-02-02T05:23:43.009Z,0
2023-02-02T05:24:43.672Z,0
2023-02-02T05:25:44.261Z,0
2023-02-02T05:26:45.045Z,0
2023-02-02T05:27:45.532Z,0
2023-02-02T05:28:46.205Z,0
2023-02-02T05:29:46.794Z,0
2023-02-02T05:30:47.406Z,0
2023-02-02T05:31:48.106Z,0
2023-02-02T05:32:48.719Z,0
2023-02-02T05:33:49.308Z,0
2023-02-02T05:34:49.898Z,0
2023-02-02T05:35:50.490Z,0
2023-02-02T05:36:51.091Z,0
2023-02-02T05:37:51.692Z,0
2023-02-02T05:38:52.283Z,0
2023-02-02T05:39:52.874Z,0
2023-02-02T05:40:53.464Z,0
2023-02-02T05:41:54.058Z,0
2023-02-02T05:42:54.660Z,0
2023-02-02T05:43:55.245Z,0
2023-02-02T05:44:55.837Z,0
2023-02-02T05:45:56.505Z,0
2023-02-02T05:46:57.088Z,0
2023-02-02T05:47:57.689Z,0
2023-02-02T05:48:58.292Z,0
2023-02-02T05:49:58.895Z,0
2023-02-02T05:50:59.574Z,0
2023-02-02T05:52:00.165Z,0
2023-02-02T05:53:00.763Z,0
2023-02-02T05:54:01.357Z,0
2023-02-02T05:55:01.953Z,0
2023-02-02T05:56:02.592Z,0
2023-02-02T05:57:03.185Z,0
2023-02-02T05:58:03.785Z,0
2023-02-02T05:59:04.447Z,0
2023-02-02T06:00:05.043Z,0
2023-02-02T06:01:05.646Z,0
2023-02-02T06:02:06.247Z,0
2023-02-02T06:03:06.936Z,0
2023-02-02T06:04:07.589Z,0
2023-02-02T06:05:08.180Z,0
2023-02-02T06:06:08.781Z,0
2023-02-02T06:07:09.391Z,0
2023-02-02T06:08:10.122Z,0
2023-02-02T06:09:10.767Z,0
2023-02-02T06:10:11.400Z,0
2023-02-02T06:11:12.042Z,0
2023-02-02T06:12:12.765Z,0
2023-02-02T06:13:13.350Z,0
2023-02-02T06:14:13.945Z,0
2023-02-02T06:15:14.677Z,0
2023-02-02T06:16:15.342Z,0
2023-02-02T06:17:15.957Z,0
2023-02-02T06:18:16.607Z,0
2023-02-02T06:19:17.209Z,0
2023-02-02T06:20:17.815Z,0
2023-02-02T06:21:18.410Z,0
2023-02-02T06:22:18.998Z,0
2023-02-02T06:23:19.590Z,0
2023-02-02T06:24:20.185Z,0
2023-02-02T06:25:20.853Z,0
2023-02-02T06:26:21.558Z,0
2023-02-02T06:27:22.175Z,0
2023-02-02T06:28:23.618Z,0
2023-02-02T06:29:24.221Z,0
2023-02-02T06:30:25.682Z,0
2023-02-02T06:31:26.549Z,0
2023-02-02T06:32:27.368Z,0
2023-02-02T06:33:28.011Z,0
2023-02-02T06:34:28.671Z,0
2023-02-02T06:35:29.262Z,0
2023-02-02T06:36:29.859Z,0
2023-02-02T06:37:30.876Z,0
2023-02-02T06:38:31.487Z,0
2023-02-02T06:39:32.078Z,0
2023-02-02T06:40:32.670Z,0
2023-02-02T06:41:33.288Z,0
2023-02-02T06:42:33.866Z,0
2023-02-02T06:43:34.470Z,0
2023-02-02T06:44:35.067Z,0
2023-02-02T06:45:35.662Z,0
2023-02-02T06:46:36.309Z,0
2023-02-02T06:47:36.913Z,0
2023-02-02T06:48:37.535Z,0
2023-02-02T06:49:38.119Z,0
2023-02-02T06:50:38.723Z,0
2023-02-02T06:51:39.311Z,0
2023-02-02T06:52:39.913Z,0
2023-02-02T06:53:40.521Z,0
2023-02-02T06:54:41.097Z,0
2023-02-02T06:55:41.700Z,0
2023-02-02T06:56:42.295Z,0
2023-02-02T06:57:42.914Z,0
2023-02-02T06:58:43.509Z,0
2023-02-02T06:59:44.096Z,0
2023-02-02T07:00:44.697Z,0
2023-02-02T07:01:45.326Z,0
2023-02-02T07:02:46.036Z,0
2023-02-02T07:03:46.699Z,0
2023-02-02T07:04:47.330Z,0
2023-02-02T07:05:47.935Z,0
2023-02-02T07:06:48.524Z,0
2023-02-02T07:07:49.123Z,0
2023-02-02T07:09:02.807Z,0
2023-02-02T07:09:58.343Z,0
2023-02-02T07:11:13.447Z,0
2023-02-02T07:11:54.483Z,0
2023-02-02T07:12:55.073Z,0
2023-02-02T07:13:55.690Z,0
2023-02-02T07:14:56.287Z,0
2023-02-02T07:15:56.928Z,0
2023-02-02T07:16:57.533Z,0
2023-02-02T07:17:58.134Z,0
2023-02-02T07:18:58.724Z,0
2023-02-02T07:19:59.327Z,0
2023-02-02T07:20:59.946Z,0
2023-02-02T07:22:00.527Z,0
2023-02-02T07:23:01.125Z,0
2023-02-02T07:24:01.727Z,0
2023-02-02T07:25:02.333Z,0
2023-02-02T07:26:03.915Z,0
2023-02-02T07:27:04.510Z,0
2023-02-02T07:28:05.101Z,0
2023-02-02T07:29:05.696Z,0
2023-02-02T07:30:06.295Z,0
2023-02-02T07:31:06.986Z,0
2023-02-02T07:32:07.622Z,0
2023-02-02T07:33:08.206Z,0
2023-02-02T07:34:08.810Z,0
2023-02-02T07:35:09.456Z,0
2023-02-02T07:36:10.099Z,0
2023-02-02T07:37:10.863Z,0
2023-02-02T07:38:11.444Z,0
2023-02-02T07:39:12.298Z,0
2023-02-02T07:40:13.826Z,0
2023-02-02T07:41:14.461Z,0
2023-02-02T07:42:15.057Z,0
2023-02-02T07:43:15.668Z,0
2023-02-02T07:44:16.239Z,0
2023-02-02T07:45:27.766Z,0
2023-02-02T07:46:17.541Z,0
2023-02-02T07:47:18.211Z,0
2023-02-02T07:48:18.805Z,0
2023-02-02T07:49:19.405Z,0
2023-02-02T07:50:19.996Z,0
2023-02-02T07:51:20.589Z,0
2023-02-02T07:52:21.186Z,0
2023-02-02T07:53:21.781Z,0
2023-02-02T07:54:22.392Z,0
2023-02-02T07:55:22.981Z,0
2023-02-02T07:56:23.630Z,0
2023-02-02T07:57:24.228Z,0
2023-02-02T07:58:24.828Z,0
2023-02-02T07:59:25.422Z,0
2023-02-02T08:00:26.053Z,0
2023-02-02T08:01:26.820Z,0
2023-02-02T08:02:27.499Z,0
2023-02-02T08:03:28.082Z,0
2023-02-02T08:04:28.690Z,0
2023-02-02T08:05:29.342Z,0
2023-02-02T08:06:29.947Z,0
2023-02-02T08:07:30.567Z,0
2023-02-02T08:08:31.157Z,0
2023-02-02T08:09:31.747Z,0
2023-02-02T08:10:32.352Z,4
2023-02-02T08:11:32.952Z,4
2023-02-02T08:12:33.536Z,4
2023-02-02T08:13:34.197Z,4
2023-02-02T08:14:34.852Z,0
2023-02-02T08:15:35.442Z,0
2023-02-02T08:16:36.162Z,0
2023-02-02T08:17:36.767Z,0
2023-02-02T08:18:37.377Z,0
2023-02-02T08:19:37.971Z,0
2023-02-02T08:20:38.575Z,0
2023-02-02T08:21:39.166Z,0
2023-02-02T08:22:39.766Z,0
2023-02-02T08:23:40.388Z,0
2023-02-02T08:24:41.037Z,0
2023-02-02T08:25:41.627Z,0
2023-02-02T08:26:42.261Z,0
2023-02-02T08:27:42.857Z,0
2023-02-02T08:28:43.453Z,0
2023-02-02T08:29:44.061Z,0
2023-02-02T08:30:44.702Z,0
2023-02-02T08:31:45.366Z,0
2023-02-02T08:32:46.001Z,0
2023-02-02T08:33:46.657Z,0
2023-02-02T08:34:47.247Z,0
2023-02-02T08:35:47.844Z,0
2023-02-02T08:36:49.245Z,0
2023-02-02T08:37:49.894Z,0
2023-02-02T08:38:50.497Z,0
2023-02-02T08:39:51.109Z,0
2023-02-02T08:40:51.707Z,0
2023-02-02T08:41:52.301Z,4
2023-02-02T08:42:52.896Z,4
2023-02-02T08:43:54.162Z,4
2023-02-02T08:46:00.273Z,8
2023-02-02T08:46:07.790Z,8
2023-02-02T08:46:59.216Z,8
2023-02-02T08:48:11.243Z,8
2023-02-02T08:49:01.501Z,4
2023-02-02T08:50:02.102Z,4
2023-02-02T08:51:02.778Z,4
2023-02-02T08:52:03.371Z,4
2023-02-02T08:53:03.977Z,4
2023-02-02T08:54:04.575Z,4
2023-02-02T08:55:05.164Z,4
2023-02-02T08:56:05.755Z,4
2023-02-02T08:57:06.358Z,4
2023-02-02T08:58:06.967Z,8
2023-02-02T08:59:07.558Z,8
2023-02-02T09:00:08.160Z,8
2023-02-02T09:01:08.795Z,8
2023-02-02T09:02:09.442Z,8
2023-02-02T09:03:10.045Z,8
2023-02-02T09:04:10.624Z,8
2023-02-02T09:05:11.219Z,8
2023-02-02T09:06:12.615Z,8
2023-02-02T09:07:13.214Z,8
2023-02-02T09:08:13.835Z,8
2023-02-02T09:09:14.488Z,8
2023-02-02T09:10:15.078Z,8
2023-02-02T09:11:15.683Z,8
2023-02-02T09:12:16.275Z,8
2023-02-02T09:13:16.876Z,8
2023-02-02T09:14:17.481Z,4
2023-02-02T09:15:18.148Z,4
2023-02-02T09:16:18.761Z,4
2023-02-02T09:17:19.344Z,4
2023-02-02T09:18:20.006Z,8
2023-02-02T09:19:21.449Z,8
2023-02-02T09:20:22.056Z,8
2023-02-02T09:21:22.696Z,8
2023-02-02T09:22:23.286Z,8
2023-02-02T09:23:23.879Z,8
2023-02-02T09:24:24.476Z,8
2023-02-02T09:25:25.497Z,8
2023-02-02T09:26:26.448Z,8
2023-02-02T09:27:26.956Z,8
2023-02-02T09:28:27.549Z,8
2023-02-02T09:29:28.150Z,8
2023-02-02T09:30:28.762Z,8
2023-02-02T09:31:29.361Z,8
2023-02-02T09:32:29.968Z,8
2023-02-02T09:33:30.565Z,8
2023-02-02T09:34:31.212Z,8
2023-02-02T09:35:31.810Z,8
2023-02-02T09:36:32.413Z,8
2023-02-02T09:37:32.998Z,8
2023-02-02T09:38:33.623Z,8
2023-02-02T09:39:34.211Z,8
2023-02-02T09:40:34.803Z,8
2023-02-02T09:41:35.403Z,8
2023-02-02T09:42:36.014Z,8
2023-02-02T09:43:36.653Z,8
2023-02-02T09:44:37.253Z,12
2023-02-02T09:45:37.922Z,12
2023-02-02T09:46:38.584Z,8
2023-02-02T09:47:39.281Z,8
2023-02-02T09:48:39.942Z,8
2023-02-02T09:49:40.531Z,8
2023-02-02T09:50:41.121Z,8
2023-02-02T09:51:41.798Z,8
2023-02-02T09:52:42.478Z,8
2023-02-02T09:53:54.596Z,8
2023-02-02T09:54:44.769Z,8
2023-02-02T09:55:45.362Z,8
2023-02-02T09:56:45.966Z,8
2023-02-02T09:57:46.677Z,8
2023-02-02T09:58:47.274Z,8
2023-02-02T09:59:47.867Z,8
2023-02-02T10:00:48.474Z,12
2023-02-02T10:01:49.074Z,12
2023-02-02T10:02:49.743Z,12
2023-02-02T10:03:50.362Z,12
2023-02-02T10:04:50.947Z,12
2023-02-02T10:05:51.548Z,12
2023-02-02T10:06:52.152Z,12
2023-02-02T10:07:52.748Z,12
2023-02-02T10:08:53.355Z,12
2023-02-02T10:09:54.028Z,8
2023-02-02T10:10:54.617Z,8
2023-02-02T10:11:56.032Z,8
2023-02-02T10:12:56.673Z,8
2023-02-02T10:13:57.263Z,8
2023-02-02T10:14:57.913Z,8
2023-02-02T10:16:01.183Z,8
2023-02-02T10:17:00.155Z,8
2023-02-02T10:18:00.749Z,8
2023-02-02T10:19:01.342Z,8
2023-02-02T10:20:01.943Z,8
2023-02-02T10:21:02.546Z,8
2023-02-02T10:22:03.213Z,8
2023-02-02T10:23:03.826Z,8
2023-02-02T10:24:04.402Z,8
2023-02-02T10:25:04.991Z,8
2023-02-02T10:26:05.588Z,8
2023-02-02T10:27:06.221Z,8
2023-02-02T10:28:06.998Z,8
2023-02-02T10:29:07.582Z,8
2023-02-02T10:30:08.170Z,8
2023-02-02T10:31:08.908Z,8
2023-02-02T10:32:09.617Z,8
2023-02-02T10:33:10.213Z,12
2023-02-02T10:34:10.811Z,8
2023-02-02T10:35:14.176Z,12
2023-02-02T10:36:13.063Z,12
2023-02-02T10:37:13.668Z,12
2023-02-02T10:38:14.340Z,12
2023-02-02T10:39:14.932Z,12
2023-02-02T10:40:15.529Z,12
2023-02-02T10:41:16.194Z,12
2023-02-02T10:42:16.784Z,12
2023-02-02T10:43:17.376Z,12
2023-02-02T10:44:17.970Z,12
2023-02-02T10:45:18.587Z,12
2023-02-02T10:46:19.278Z,12
2023-02-02T10:47:19.914Z,12
2023-02-02T10:48:20.785Z,12
2023-02-02T10:49:21.400Z,12
2023-02-02T10:50:22.013Z,12
2023-02-02T10:51:22.639Z,12
2023-02-02T10:52:23.229Z,12
2023-02-02T10:53:23.844Z,12
2023-02-02T10:54:25.328Z,12
2023-02-02T10:55:25.921Z,12
2023-02-02T10:56:26.510Z,12
2023-02-02T10:57:27.103Z,12
2023-02-02T10:58:27.748Z,12
2023-02-02T10:59:28.354Z,12
2023-02-02T11:00:29.262Z,12
2023-02-02T11:01:30.196Z,12
2023-02-02T11:02:30.815Z,12
2023-02-02T11:03:31.409Z,12
2023-02-02T11:04:32.020Z,12
2023-02-02T11:05:32.673Z,12
2023-02-02T11:06:33.261Z,12
2023-02-02T11:07:33.869Z,12
2023-02-02T11:08:34.465Z,12
2023-02-02T11:09:35.055Z,12
2023-02-02T11:10:35.648Z,12
2023-02-02T11:11:36.830Z,12
2023-02-02T11:12:37.579Z,12
2023-02-02T11:13:38.176Z,12
2023-02-02T11:14:45.224Z,12
2023-02-02T11:15:40.384Z,12
2023-02-02T11:16:44.293Z,12
2023-02-02T11:17:42.570Z,12
2023-02-02T11:18:44.202Z,12
2023-02-02T11:19:44.757Z,12
2023-02-02T11:20:45.365Z,12
2023-02-02T11:21:45.958Z,12
2023-02-02T11:22:46.554Z,12
2023-02-02T11:23:48.823Z,12
2023-02-02T11:24:48.857Z,12
2023-02-02T11:25:49.460Z,12
2023-02-02T11:26:50.117Z,12
2023-02-02T11:27:50.708Z,12
2023-02-02T11:28:51.349Z,12
2023-02-02T11:29:52.030Z,12
2023-02-02T11:30:52.909Z,12
2023-02-02T11:31:53.586Z,8
2023-02-02T11:32:54.181Z,8
2023-02-02T11:33:54.773Z,8
2023-02-02T11:34:55.368Z,8
2023-02-02T11:35:55.981Z,8
2023-02-02T11:36:56.574Z,8
2023-02-02T11:37:57.178Z,12
2023-02-02T11:38:57.772Z,12
2023-02-02T11:39:58.522Z,12
2023-02-02T11:40:59.124Z,12
2023-02-02T11:41:59.723Z,12
2023-02-02T11:43:00.335Z,16
2023-02-02T11:44:00.933Z,16
2023-02-02T11:45:01.545Z,12
2023-02-02T11:46:03.200Z,12
2023-02-02T11:47:03.719Z,12
2023-02-02T11:48:04.321Z,12
2023-02-02T11:49:04.923Z,12
2023-02-02T11:50:05.522Z,12
2023-02-02T11:51:06.893Z,12
2023-02-02T11:52:08.349Z,12
2023-02-02T11:53:08.947Z,12
2023-02-02T11:54:09.550Z,12
2023-02-02T11:55:10.311Z,12
2023-02-02T11:56:10.900Z,12
2023-02-02T11:57:11.499Z,12
2023-02-02T11:58:12.268Z,12
2023-02-02T11:59:12.846Z,12
2023-02-02T12:00:13.435Z,12
2023-02-02T12:01:14.031Z,12
2023-02-02T12:02:15.602Z,12
2023-02-02T12:03:16.189Z,12
2023-02-02T12:04:16.888Z,16
2023-02-02T12:05:17.537Z,16
2023-02-02T12:06:18.310Z,16
2023-02-02T12:07:18.946Z,16
2023-02-02T12:08:19.540Z,16
2023-02-02T12:09:20.190Z,16
2023-02-02T12:10:20.787Z,16
2023-02-02T12:11:21.376Z,16
2023-02-02T12:12:21.980Z,16
2023-02-02T12:13:22.632Z,16
2023-02-02T12:14:23.230Z,16
2023-02-02T12:15:23.875Z,12
2023-02-02T12:16:24.464Z,16
2023-02-02T12:17:25.349Z,16
2023-02-02T12:18:26.019Z,16
2023-02-02T12:19:26.622Z,16
2023-02-02T12:20:27.788Z,12
2023-02-02T12:21:27.883Z,12
2023-02-02T12:22:28.490Z,12
2023-02-02T12:23:29.141Z,12
2023-02-02T12:24:29.735Z,12
2023-02-02T12:25:30.328Z,16
2023-02-02T12:26:30.957Z,16
2023-02-02T12:27:31.564Z,16
2023-02-02T12:28:32.167Z,16
2023-02-02T12:29:32.840Z,16
2023-02-02T12:30:34.321Z,20
2023-02-02T12:31:35.817Z,20
2023-02-02T12:32:36.467Z,20
2023-02-02T12:33:37.174Z,20
2023-02-02T12:34:37.914Z,20
2023-02-02T12:35:38.516Z,20
2023-02-02T12:36:39.116Z,20
2023-02-02T12:37:39.735Z,20
2023-02-02T12:38:40.304Z,20
2023-02-02T12:39:40.956Z,20
2023-02-02T12:40:41.552Z,20
2023-02-02T12:41:42.142Z,20
2023-02-02T12:42:42.746Z,16
2023-02-02T12:43:43.478Z,16
2023-02-02T12:44:44.077Z,16
2023-02-02T12:45:44.792Z,16
2023-02-02T12:46:45.396Z,16
2023-02-02T12:47:46.061Z,16
2023-02-02T12:48:46.658Z,16
2023-02-02T12:49:47.249Z,16
2023-02-02T12:50:47.839Z,16
2023-02-02T12:51:48.440Z,16
2023-02-02T12:52:49.047Z,16
2023-02-02T12:54:33.571Z,16
2023-02-02T12:54:56.218Z,16
2023-02-02T12:55:52.839Z,16
2023-02-02T12:56:54.414Z,16
2023-02-02T12:57:55.015Z,16
2023-02-02T12:58:55.614Z,16
2023-02-02T12:59:56.209Z,16
2023-02-02T13:00:56.840Z,16
2023-02-02T13:01:57.513Z,16
2023-02-02T13:02:58.090Z,16
2023-02-02T13:03:58.761Z,16
2023-02-02T13:04:59.354Z,16
2023-02-02T13:05:59.967Z,16
2023-02-02T13:07:00.579Z,16
2023-02-02T13:08:01.171Z,16
2023-02-02T13:09:01.764Z,16
2023-02-02T13:10:02.367Z,16
2023-02-02T13:11:02.953Z,16
2023-02-02T13:12:03.543Z,16
2023-02-02T13:13:04.209Z,16
2023-02-02T13:14:04.849Z,16
2023-02-02T13:15:05.444Z,20
2023-02-02T13:16:06.039Z,20
2023-02-02T13:17:06.628Z,20
2023-02-02T13:18:07.223Z,20
2023-02-02T13:19:07.828Z,20
2023-02-02T13:20:08.484Z,20
2023-02-02T13:21:09.085Z,20
2023-02-02T13:22:09.745Z,20
2023-02-02T13:23:10.350Z,20
2023-02-02T13:24:10.932Z,20
2023-02-02T13:25:11.529Z,20
2023-02-02T13:26:12.166Z,20
2023-02-02T13:27:12.870Z,20
2023-02-02T13:28:13.484Z,16
2023-02-02T13:29:14.129Z,16
2023-02-02T13:30:14.723Z,16
2023-02-02T13:31:15.474Z,16
2023-02-02T13:32:16.149Z,16
2023-02-02T13:33:17.603Z,16
2023-02-02T13:34:18.488Z,16
2023-02-02T13:35:19.083Z,16
2023-02-02T13:36:19.833Z,16
2023-02-02T13:37:20.430Z,16
2023-02-02T13:38:21.233Z,16
2023-02-02T13:39:21.825Z,16
2023-02-02T13:40:22.421Z,16
2023-02-02T13:41:23.071Z,16
2023-02-02T13:42:23.692Z,20
2023-02-02T13:43:25.073Z,20
2023-02-02T13:44:25.700Z,20
2023-02-02T13:45:26.625Z,20
2023-02-02T13:46:27.444Z,20
2023-02-02T13:47:28.043Z,16
2023-02-02T13:48:28.649Z,16
2023-02-02T13:49:29.234Z,16
2023-02-02T13:50:29.829Z,16
2023-02-02T13:51:30.424Z,16
2023-02-02T13:52:31.017Z,20
2023-02-02T13:53:31.612Z,20
2023-02-02T13:54:32.208Z,20
2023-02-02T13:55:32.798Z,20
2023-02-02T13:56:33.394Z,20
2023-02-02T13:57:34.044Z,20
2023-02-02T13:58:34.727Z,20
2023-02-02T13:59:35.336Z,20
2023-02-02T14:00:35.914Z,20
2023-02-02T14:01:36.565Z,20
2023-02-02T14:02:37.203Z,16
2023-02-02T14:03:37.780Z,16
2023-02-02T14:04:38.375Z,16
2023-02-02T14:05:39.039Z,20
2023-02-02T14:06:39.624Z,20
2023-02-02T14:07:41.821Z,20
2023-02-02T14:08:41.806Z,20
2023-02-02T14:09:42.399Z,20
2023-02-02T14:10:43.000Z,20
2023-02-02T14:11:43.586Z,24
2023-02-02T14:12:44.180Z,24
2023-02-02T14:13:44.780Z,24
2023-02-02T14:14:45.370Z,28
2023-02-02T14:15:45.985Z,32
2023-02-02T14:16:46.565Z,32
2023-02-02T14:17:47.171Z,32
2023-02-02T14:18:47.750Z,32
2023-02-02T14:19:48.342Z,36
2023-02-02T14:20:48.946Z,36
2023-02-02T14:21:49.599Z,40
2023-02-02T14:22:50.192Z,40
2023-02-02T14:23:50.788Z,40
2023-02-02T14:24:51.446Z,40
2023-02-02T14:25:52.046Z,44
2023-02-02T14:26:52.779Z,44
2023-02-02T14:27:53.291Z,44
2023-02-02T14:28:53.885Z,48
2023-02-02T14:29:54.480Z,48
2023-02-02T14:30:55.165Z,48
2023-02-02T14:31:56.681Z,44
2023-02-02T14:32:57.303Z,48
2023-02-02T14:33:57.898Z,48
2023-02-02T14:34:58.537Z,48
2023-02-02T14:36:01.212Z,48
2023-02-02T14:37:00.717Z,48
2023-02-02T14:38:01.318Z,48
2023-02-02T14:39:01.915Z,48
2023-02-02T14:40:02.508Z,48
2023-02-02T14:41:04.011Z,48
2023-02-02T14:42:04.608Z,48
2023-02-02T14:43:05.312Z,48
2023-02-02T14:44:05.903Z,48
2023-02-02T14:45:06.647Z,48
2023-02-02T14:46:07.293Z,48
2023-02-02T14:47:08.766Z,48
2023-02-02T14:48:09.357Z,44
2023-02-02T14:49:09.953Z,44
2023-02-02T14:50:10.551Z,48